sensor_id;sensor_type;location;lat;lon;timestamp;pressure;altitude;pressure_sealevel;temperature;humidity
69848;BME280;57143;55.940;37.496;2022-12-07T00:01:50;100229.59;;;-6.08;100.00
69848;BME280;57143;55.940;37.496;2022-12-07T00:04:18;100218.94;;;-6.33;100.00
69848;BME280;57143;55.940;37.496;2022-12-07T00:06:47;100230.72;;;-6.12;100.00
69848;BME280;57143;55.940;37.496;2022-12-07T00:09:17;100244.94;;;-6.14;100.00
69848;BME280;57143;55.940;37.496;2022-12-07T00:11:48;100210.63;;;-6.27;100.00
69848;BME280;57143;55.940;37.496;2022-12-07T00:14:18;100202.25;;;-6.33;100.00
69848;BME280;57143;55.940;37.496;2022-12-07T00:16:49;100205.47;;;-6.28;100.00
69848;BME280;57143;55.940;37.496;2022-12-07T00:19:16;100233.75;;;-6.18;100.00
69848;BME280;57143;55.940;37.496;2022-12-07T00:21:44;100231.97;;;-6.17;100.00
69848;BME280;57143;55.940;37.496;2022-12-07T00:24:11;100193.47;;;-6.46;100.00
69848;BME280;57143;55.940;37.496;2022-12-07T00:26:40;100218.34;;;-6.24;100.00
69848;BME280;57143;55.940;37.496;2022-12-07T00:29:13;100194.09;;;-6.43;100.00
69848;BME280;57143;55.940;37.496;2022-12-07T00:31:43;100236.22;;;-6.15;100.00
69848;BME280;57143;55.940;37.496;2022-12-07T00:34:13;100218.06;;;-6.33;100.00
69848;BME280;57143;55.940;37.496;2022-12-07T00:36:40;100217.34;;;-6.35;100.00
69848;BME280;57143;55.940;37.496;2022-12-07T00:39:08;100241.75;;;-6.19;100.00
69848;BME280;57143;55.940;37.496;2022-12-07T00:41:35;100220.63;;;-6.32;100.00
69848;BME280;57143;55.940;37.496;2022-12-07T00:44:02;100213.44;;;-6.30;100.00
69848;BME280;57143;55.940;37.496;2022-12-07T00:46:30;100241.44;;;-6.27;100.00
69848;BME280;57143;55.940;37.496;2022-12-07T00:48:58;100224.97;;;-6.31;100.00
69848;BME280;57143;55.940;37.496;2022-12-07T00:51:26;100186.78;;;-6.52;100.00
69848;BME280;57143;55.940;37.496;2022-12-07T00:53:53;100162.38;;;-6.68;100.00
69848;BME280;57143;55.940;37.496;2022-12-07T00:56:22;100247.34;;;-6.24;100.00
69848;BME280;57143;55.940;37.496;2022-12-07T00:58:51;100243.03;;;-6.25;100.00
69848;BME280;57143;55.940;37.496;2022-12-07T01:01:18;100190.38;;;-6.53;100.00
69848;BME280;57143;55.940;37.496;2022-12-07T01:03:45;100240.56;;;-6.28;100.00
69848;BME280;57143;55.940;37.496;2022-12-07T01:06:16;100236.34;;;-6.30;100.00
69848;BME280;57143;55.940;37.496;2022-12-07T01:08:43;100213.59;;;-6.45;100.00
69848;BME280;57143;55.940;37.496;2022-12-07T01:11:13;100232.41;;;-6.37;100.00
69848;BME280;57143;55.940;37.496;2022-12-07T01:13:42;100239.28;;;-6.35;100.00
69848;BME280;57143;55.940;37.496;2022-12-07T01:16:11;100184.47;;;-6.70;100.00
69848;BME280;57143;55.940;37.496;2022-12-07T01:18:39;100168.44;;;-6.80;100.00
69848;BME280;57143;55.940;37.496;2022-12-07T01:21:09;100206.94;;;-6.51;100.00
69848;BME280;57143;55.940;37.496;2022-12-07T01:23:39;100223.97;;;-6.42;100.00
69848;BME280;57143;55.940;37.496;2022-12-07T01:26:09;100217.84;;;-6.43;100.00
69848;BME280;57143;55.940;37.496;2022-12-07T01:28:36;100221.50;;;-6.45;100.00
69848;BME280;57143;55.940;37.496;2022-12-07T01:31:06;100214.09;;;-6.53;100.00
69848;BME280;57143;55.940;37.496;2022-12-07T01:33:35;100221.50;;;-6.45;100.00
69848;BME280;57143;55.940;37.496;2022-12-07T01:36:03;100187.78;;;-6.67;100.00
69848;BME280;57143;55.940;37.496;2022-12-07T01:38:31;100223.59;;;-6.50;100.00
69848;BME280;57143;55.940;37.496;2022-12-07T01:41:03;100212.88;;;-6.47;100.00
69848;BME280;57143;55.940;37.496;2022-12-07T01:43:32;100189.38;;;-6.64;100.00
69848;BME280;57143;55.940;37.496;2022-12-07T01:46:00;100207.72;;;-6.63;100.00
69848;BME280;57143;55.940;37.496;2022-12-07T01:48:31;100205.75;;;-6.59;100.00
69848;BME280;57143;55.940;37.496;2022-12-07T01:51:02;100192.59;;;-6.73;100.00
69848;BME280;57143;55.940;37.496;2022-12-07T01:53:32;100210.81;;;-6.56;100.00
69848;BME280;57143;55.940;37.496;2022-12-07T01:56:03;100199.34;;;-6.69;100.00
69848;BME280;57143;55.940;37.496;2022-12-07T01:58:32;100161.38;;;-6.93;100.00
69848;BME280;57143;55.940;37.496;2022-12-07T02:01:00;100212.69;;;-6.58;100.00
69848;BME280;57143;55.940;37.496;2022-12-07T02:03:30;100202.19;;;-6.72;100.00
69848;BME280;57143;55.940;37.496;2022-12-07T02:05:59;100174.63;;;-6.81;100.00
69848;BME280;57143;55.940;37.496;2022-12-07T02:08:27;100162.22;;;-6.93;100.00
69848;BME280;57143;55.940;37.496;2022-12-07T02:10:55;100211.19;;;-6.62;100.00
69848;BME280;57143;55.940;37.496;2022-12-07T02:13:25;100102.47;;;-7.33;100.00
69848;BME280;57143;55.940;37.496;2022-12-07T02:16:14;100216.28;;;-6.59;100.00
69848;BME280;57143;55.940;37.496;2022-12-07T02:18:55;100108.56;;;-7.19;100.00
69848;BME280;57143;55.940;37.496;2022-12-07T02:21:31;100223.03;;;-6.55;100.00
69848;BME280;57143;55.940;37.496;2022-12-07T02:24:24;100162.03;;;-6.90;100.00
69848;BME280;57143;55.940;37.496;2022-12-07T02:27:38;100200.00;;;-6.66;100.00
69848;BME280;57143;55.940;37.496;2022-12-07T02:30:12;100175.47;;;-6.80;100.00
69848;BME280;57143;55.940;37.496;2022-12-07T02:32:44;100218.81;;;-6.58;100.00
69848;BME280;57143;55.940;37.496;2022-12-07T02:35:19;100167.94;;;-6.86;100.00
69848;BME280;57143;55.940;37.496;2022-12-07T02:37:53;100207.53;;;-6.60;100.00
69848;BME280;57143;55.940;37.496;2022-12-07T02:40:28;100188.06;;;-6.71;100.00
69848;BME280;57143;55.940;37.496;2022-12-07T02:43:01;100170.00;;;-6.77;100.00
69848;BME280;57143;55.940;37.496;2022-12-07T02:45:34;100210.06;;;-6.58;100.00
69848;BME280;57143;55.940;37.496;2022-12-07T02:48:02;100203.09;;;-6.59;100.00
69848;BME280;57143;55.940;37.496;2022-12-07T02:50:30;100207.63;;;-6.61;100.00
69848;BME280;57143;55.940;37.496;2022-12-07T02:52:57;100210.38;;;-6.63;100.00
69848;BME280;57143;55.940;37.496;2022-12-07T02:55:28;100210.63;;;-6.67;100.00
69848;BME280;57143;55.940;37.496;2022-12-07T02:58:11;100203.69;;;-6.68;100.00
69848;BME280;57143;55.940;37.496;2022-12-07T03:00:52;100201.91;;;-6.68;100.00
69848;BME280;57143;55.940;37.496;2022-12-07T03:03:23;100209.59;;;-6.65;100.00
69848;BME280;57143;55.940;37.496;2022-12-07T03:06:07;100196.81;;;-6.71;100.00
69848;BME280;57143;55.940;37.496;2022-12-07T03:08:44;100194.94;;;-6.69;100.00
69848;BME280;57143;55.940;37.496;2022-12-07T03:11:14;100201.97;;;-6.69;100.00
69848;BME280;57143;55.940;37.496;2022-12-07T03:13:48;100198.50;;;-6.70;100.00
69848;BME280;57143;55.940;37.496;2022-12-07T03:16:21;100173.13;;;-6.85;100.00
69848;BME280;57143;55.940;37.496;2022-12-07T03:18:52;100190.44;;;-6.81;100.00
69848;BME280;57143;55.940;37.496;2022-12-07T03:21:25;100192.03;;;-6.78;100.00
69848;BME280;57143;55.940;37.496;2022-12-07T03:23:56;100199.63;;;-6.74;100.00
69848;BME280;57143;55.940;37.496;2022-12-07T03:26:32;100199.53;;;-6.72;100.00
69848;BME280;57143;55.940;37.496;2022-12-07T03:29:05;100193.53;;;-6.74;100.00
69848;BME280;57143;55.940;37.496;2022-12-07T03:31:39;100193.16;;;-6.82;100.00
69848;BME280;57143;55.940;37.496;2022-12-07T03:34:10;100171.09;;;-6.94;100.00
69848;BME280;57143;55.940;37.496;2022-12-07T03:36:44;100164.78;;;-7.05;100.00
69848;BME280;57143;55.940;37.496;2022-12-07T03:39:18;100163.19;;;-7.22;100.00
69848;BME280;57143;55.940;37.496;2022-12-07T03:41:47;100179.97;;;-7.23;100.00
69848;BME280;57143;55.940;37.496;2022-12-07T03:44:16;100160.22;;;-7.44;100.00
69848;BME280;57143;55.940;37.496;2022-12-07T03:46:53;100165.47;;;-7.44;100.00
69848;BME280;57143;55.940;37.496;2022-12-07T03:49:27;100160.00;;;-7.41;100.00
69848;BME280;57143;55.940;37.496;2022-12-07T03:52:02;100163.28;;;-7.52;100.00
69848;BME280;57143;55.940;37.496;2022-12-07T03:54:34;100159.16;;;-7.56;100.00
69848;BME280;57143;55.940;37.496;2022-12-07T03:57:05;100009.19;;;-8.54;100.00
69848;BME280;57143;55.940;37.496;2022-12-07T03:59:33;100140.66;;;-7.68;100.00
69848;BME280;57143;55.940;37.496;2022-12-07T04:02:05;100131.44;;;-7.75;100.00
69848;BME280;57143;55.940;37.496;2022-12-07T04:04:33;100143.47;;;-7.71;100.00
69848;BME280;57143;55.940;37.496;2022-12-07T04:07:01;100136.69;;;-7.75;100.00
69848;BME280;57143;55.940;37.496;2022-12-07T04:09:28;100120.06;;;-7.76;100.00
69848;BME280;57143;55.940;37.496;2022-12-07T04:11:55;100102.84;;;-7.81;100.00
69848;BME280;57143;55.940;37.496;2022-12-07T04:14:23;100114.78;;;-7.76;100.00
69848;BME280;57143;55.940;37.496;2022-12-07T04:16:51;100071.75;;;-8.03;100.00
69848;BME280;57143;55.940;37.496;2022-12-07T04:19:22;100079.25;;;-7.97;100.00
69848;BME280;57143;55.940;37.496;2022-12-07T04:21:50;100107.19;;;-7.80;100.00
69848;BME280;57143;55.940;37.496;2022-12-07T04:24:17;100089.69;;;-7.81;100.00
69848;BME280;57143;55.940;37.496;2022-12-07T04:26:44;100092.41;;;-7.83;100.00
69848;BME280;57143;55.940;37.496;2022-12-07T04:29:12;100065.19;;;-7.96;100.00
69848;BME280;57143;55.940;37.496;2022-12-07T04:31:40;100043.66;;;-8.16;100.00
69848;BME280;57143;55.940;37.496;2022-12-07T04:34:07;100098.06;;;-7.89;100.00
69848;BME280;57143;55.940;37.496;2022-12-07T04:36:36;100005.25;;;-8.47;100.00
69848;BME280;57143;55.940;37.496;2022-12-07T04:39:17;100001.03;;;-8.50;100.00
69848;BME280;57143;55.940;37.496;2022-12-07T04:41:44;100057.63;;;-8.16;100.00
69848;BME280;57143;55.940;37.496;2022-12-07T04:44:15;100095.03;;;-7.97;100.00
69848;BME280;57143;55.940;37.496;2022-12-07T04:46:43;100102.25;;;-8.00;100.00
69848;BME280;57143;55.940;37.496;2022-12-07T04:49:11;100082.47;;;-8.06;100.00
69848;BME280;57143;55.940;37.496;2022-12-07T04:51:43;100104.88;;;-8.00;100.00
69848;BME280;57143;55.940;37.496;2022-12-07T04:54:10;100103.50;;;-8.06;100.00
69848;BME280;57143;55.940;37.496;2022-12-07T04:56:38;100051.16;;;-8.39;100.00
69848;BME280;57143;55.940;37.496;2022-12-07T04:59:06;100102.06;;;-8.11;100.00
69848;BME280;57143;55.940;37.496;2022-12-07T05:01:33;100098.03;;;-8.17;100.00
69848;BME280;57143;55.940;37.496;2022-12-07T05:04:00;100057.63;;;-8.44;100.00
69848;BME280;57143;55.940;37.496;2022-12-07T05:06:27;100084.53;;;-8.25;100.00
69848;BME280;57143;55.940;37.496;2022-12-07T05:08:56;100091.81;;;-8.16;100.00
69848;BME280;57143;55.940;37.496;2022-12-07T05:11:31;100083.25;;;-8.19;100.00
69848;BME280;57143;55.940;37.496;2022-12-07T05:14:12;100073.69;;;-8.20;100.00
69848;BME280;57143;55.940;37.496;2022-12-07T05:16:40;100068.84;;;-8.26;100.00
69848;BME280;57143;55.940;37.496;2022-12-07T05:19:08;99991.22;;;-8.76;100.00
69848;BME280;57143;55.940;37.496;2022-12-07T05:21:36;100077.19;;;-8.34;100.00
69848;BME280;57143;55.940;37.496;2022-12-07T05:24:06;100047.28;;;-8.47;100.00
69848;BME280;57143;55.940;37.496;2022-12-07T05:26:33;100042.50;;;-8.55;100.00
69848;BME280;57143;55.940;37.496;2022-12-07T05:29:00;100062.22;;;-8.48;100.00
69848;BME280;57143;55.940;37.496;2022-12-07T05:31:28;100080.00;;;-8.37;100.00
69848;BME280;57143;55.940;37.496;2022-12-07T05:33:55;100059.13;;;-8.54;100.00
69848;BME280;57143;55.940;37.496;2022-12-07T05:36:22;100090.66;;;-8.40;100.00
69848;BME280;57143;55.940;37.496;2022-12-07T05:38:50;100083.91;;;-8.44;100.00
69848;BME280;57143;55.940;37.496;2022-12-07T05:41:19;100060.78;;;-8.53;100.00
69848;BME280;57143;55.940;37.496;2022-12-07T05:44:04;100026.66;;;-8.83;100.00
69848;BME280;57143;55.940;37.496;2022-12-07T05:46:32;100046.94;;;-8.71;100.00
69848;BME280;57143;55.940;37.496;2022-12-07T05:48:59;100072.31;;;-8.56;100.00
69848;BME280;57143;55.940;37.496;2022-12-07T05:51:26;100092.81;;;-8.47;100.00
69848;BME280;57143;55.940;37.496;2022-12-07T05:53:54;100027.06;;;-8.90;100.00
69848;BME280;57143;55.940;37.496;2022-12-07T05:56:22;100086.13;;;-8.52;100.00
69848;BME280;57143;55.940;37.496;2022-12-07T05:58:49;100013.56;;;-8.98;100.00
69848;BME280;57143;55.940;37.496;2022-12-07T06:01:34;100083.28;;;-8.63;100.00
69848;BME280;57143;55.940;37.496;2022-12-07T06:04:01;100093.84;;;-8.49;100.00
69848;BME280;57143;55.940;37.496;2022-12-07T06:06:28;100091.38;;;-8.52;100.00
69848;BME280;57143;55.940;37.496;2022-12-07T06:08:55;100098.34;;;-8.51;100.00
69848;BME280;57143;55.940;37.496;2022-12-07T06:11:24;100112.47;;;-8.54;100.00
69848;BME280;57143;55.940;37.496;2022-12-07T06:14:08;100108.84;;;-8.51;100.00
69848;BME280;57143;55.940;37.496;2022-12-07T06:16:36;100096.31;;;-8.62;100.00
69848;BME280;57143;55.940;37.496;2022-12-07T06:19:03;100082.94;;;-8.73;100.00
69848;BME280;57143;55.940;37.496;2022-12-07T06:21:30;100122.75;;;-8.49;100.00
69848;BME280;57143;55.940;37.496;2022-12-07T06:23:58;100055.13;;;-8.91;100.00
69848;BME280;57143;55.940;37.496;2022-12-07T06:26:26;100130.53;;;-8.48;100.00
69848;BME280;57143;55.940;37.496;2022-12-07T06:28:55;100143.09;;;-8.53;100.00
69848;BME280;57143;55.940;37.496;2022-12-07T06:31:22;100130.97;;;-8.55;100.00
69848;BME280;57143;55.940;37.496;2022-12-07T06:33:49;100149.19;;;-8.52;100.00
69848;BME280;57143;55.940;37.496;2022-12-07T06:36:16;100133.19;;;-8.63;100.00
69848;BME280;57143;55.940;37.496;2022-12-07T06:38:43;100138.34;;;-8.62;100.00
69848;BME280;57143;55.940;37.496;2022-12-07T06:41:11;100126.00;;;-8.75;100.00
69848;BME280;57143;55.940;37.496;2022-12-07T06:43:39;100173.69;;;-8.52;100.00
69848;BME280;57143;55.940;37.496;2022-12-07T06:46:07;100157.16;;;-8.54;100.00
69848;BME280;57143;55.940;37.496;2022-12-07T06:48:35;100175.03;;;-8.45;100.00
69848;BME280;57143;55.940;37.496;2022-12-07T06:51:02;100179.34;;;-8.44;100.00
69848;BME280;57143;55.940;37.496;2022-12-07T06:53:29;100180.09;;;-8.42;100.00
69848;BME280;57143;55.940;37.496;2022-12-07T06:55:56;100195.78;;;-8.40;100.00
69848;BME280;57143;55.940;37.496;2022-12-07T06:58:23;100184.94;;;-8.50;100.00
69848;BME280;57143;55.940;37.496;2022-12-07T07:00:52;100182.63;;;-8.40;100.00
69848;BME280;57143;55.940;37.496;2022-12-07T07:03:19;100188.31;;;-8.32;100.00
69848;BME280;57143;55.940;37.496;2022-12-07T07:05:47;100195.16;;;-8.29;100.00
69848;BME280;57143;55.940;37.496;2022-12-07T07:08:14;100157.72;;;-8.49;100.00
69848;BME280;57143;55.940;37.496;2022-12-07T07:10:41;100169.78;;;-8.45;100.00
69848;BME280;57143;55.940;37.496;2022-12-07T07:13:09;100183.16;;;-8.33;100.00
69848;BME280;57143;55.940;37.496;2022-12-07T07:15:38;100178.41;;;-8.13;100.00
69848;BME280;57143;55.940;37.496;2022-12-07T07:18:06;100174.06;;;-7.84;100.00
69848;BME280;57143;55.940;37.496;2022-12-07T07:20:34;100177.13;;;-7.48;100.00
69848;BME280;57143;55.940;37.496;2022-12-07T07:23:01;100183.81;;;-7.29;100.00
69848;BME280;57143;55.940;37.496;2022-12-07T07:25:28;100188.50;;;-7.20;100.00
69848;BME280;57143;55.940;37.496;2022-12-07T07:27:55;100179.00;;;-7.08;100.00
69848;BME280;57143;55.940;37.496;2022-12-07T07:30:22;100185.28;;;-6.96;100.00
69848;BME280;57143;55.940;37.496;2022-12-07T07:32:50;100186.22;;;-6.83;100.00
69848;BME280;57143;55.940;37.496;2022-12-07T07:35:18;100185.16;;;-6.81;100.00
69848;BME280;57143;55.940;37.496;2022-12-07T07:37:45;100198.63;;;-6.71;100.00
69848;BME280;57143;55.940;37.496;2022-12-07T07:40:12;100162.50;;;-6.83;100.00
69848;BME280;57143;55.940;37.496;2022-12-07T07:42:39;100186.25;;;-6.71;100.00
69848;BME280;57143;55.940;37.496;2022-12-07T07:45:07;100182.94;;;-6.60;100.00
69848;BME280;57143;55.940;37.496;2022-12-07T07:47:34;100183.41;;;-6.54;100.00
69848;BME280;57143;55.940;37.496;2022-12-07T07:50:02;100185.06;;;-6.39;100.00
69848;BME280;57143;55.940;37.496;2022-12-07T07:52:31;100208.81;;;-6.26;100.00
69848;BME280;57143;55.940;37.496;2022-12-07T07:54:58;100218.81;;;-6.31;100.00
69848;BME280;57143;55.940;37.496;2022-12-07T07:57:25;100220.97;;;-6.24;100.00
69848;BME280;57143;55.940;37.496;2022-12-07T07:59:52;100224.22;;;-6.06;100.00
69848;BME280;57143;55.940;37.496;2022-12-07T08:02:21;100180.47;;;-6.49;100.00
69848;BME280;57143;55.940;37.496;2022-12-07T08:04:48;100228.19;;;-6.13;100.00
69848;BME280;57143;55.940;37.496;2022-12-07T08:07:15;100210.16;;;-6.33;100.00
69848;BME280;57143;55.940;37.496;2022-12-07T08:09:44;100241.59;;;-6.16;100.00
69848;BME280;57143;55.940;37.496;2022-12-07T08:12:11;100235.81;;;-6.35;100.00
69848;BME280;57143;55.940;37.496;2022-12-07T08:14:38;100198.91;;;-6.90;100.00
69848;BME280;57143;55.940;37.496;2022-12-07T08:17:07;100251.69;;;-6.91;100.00
69848;BME280;57143;55.940;37.496;2022-12-07T08:19:34;100250.00;;;-7.06;100.00
69848;BME280;57143;55.940;37.496;2022-12-07T08:22:02;100245.84;;;-7.25;100.00
69848;BME280;57143;55.940;37.496;2022-12-07T08:24:29;100234.94;;;-7.33;100.00
69848;BME280;57143;55.940;37.496;2022-12-07T08:26:57;100217.06;;;-7.42;100.00
69848;BME280;57143;55.940;37.496;2022-12-07T08:29:24;100214.81;;;-7.48;100.00
69848;BME280;57143;55.940;37.496;2022-12-07T08:31:52;100161.56;;;-7.81;100.00
69848;BME280;57143;55.940;37.496;2022-12-07T08:34:19;100222.72;;;-7.48;100.00
69848;BME280;57143;55.940;37.496;2022-12-07T08:36:46;100207.16;;;-7.52;100.00
69848;BME280;57143;55.940;37.496;2022-12-07T08:39:14;100175.88;;;-7.71;100.00
69848;BME280;57143;55.940;37.496;2022-12-07T08:41:41;100164.56;;;-7.73;100.00
69848;BME280;57143;55.940;37.496;2022-12-07T08:44:09;100196.66;;;-7.52;100.00
69848;BME280;57143;55.940;37.496;2022-12-07T08:46:38;100219.03;;;-7.45;100.00
69848;BME280;57143;55.940;37.496;2022-12-07T08:49:12;100221.19;;;-7.52;100.00
69848;BME280;57143;55.940;37.496;2022-12-07T08:51:40;100205.03;;;-7.60;100.00
69848;BME280;57143;55.940;37.496;2022-12-07T08:54:11;100193.06;;;-7.65;100.00
69848;BME280;57143;55.940;37.496;2022-12-07T08:56:39;100227.41;;;-7.53;100.00
69848;BME280;57143;55.940;37.496;2022-12-07T08:59:09;100162.31;;;-7.79;100.00
69848;BME280;57143;55.940;37.496;2022-12-07T09:01:37;100186.28;;;-7.69;100.00
69848;BME280;57143;55.940;37.496;2022-12-07T09:04:04;100188.19;;;-7.71;100.00
69848;BME280;57143;55.940;37.496;2022-12-07T09:06:31;100189.03;;;-7.57;100.00
69848;BME280;57143;55.940;37.496;2022-12-07T09:09:01;100202.28;;;-7.58;100.00
69848;BME280;57143;55.940;37.496;2022-12-07T09:11:28;100172.03;;;-7.65;100.00
69848;BME280;57143;55.940;37.496;2022-12-07T09:13:56;100199.75;;;-7.60;100.00
69848;BME280;57143;55.940;37.496;2022-12-07T09:16:24;100192.53;;;-7.56;100.00
69848;BME280;57143;55.940;37.496;2022-12-07T09:18:51;100169.19;;;-7.76;100.00
69848;BME280;57143;55.940;37.496;2022-12-07T09:21:18;100196.38;;;-7.62;100.00
69848;BME280;57143;55.940;37.496;2022-12-07T09:23:46;100191.38;;;-7.52;100.00
69848;BME280;57143;55.940;37.496;2022-12-07T09:26:13;100183.03;;;-7.59;100.00
69848;BME280;57143;55.940;37.496;2022-12-07T09:28:40;100186.06;;;-7.51;100.00
69848;BME280;57143;55.940;37.496;2022-12-07T09:31:07;100178.16;;;-7.51;100.00
69848;BME280;57143;55.940;37.496;2022-12-07T09:33:36;100130.00;;;-7.81;100.00
69848;BME280;57143;55.940;37.496;2022-12-07T09:36:03;100182.56;;;-7.51;100.00
69848;BME280;57143;55.940;37.496;2022-12-07T09:38:30;100179.19;;;-7.53;100.00
69848;BME280;57143;55.940;37.496;2022-12-07T09:41:04;100166.03;;;-7.53;100.00
69848;BME280;57143;55.940;37.496;2022-12-07T09:43:33;100178.25;;;-7.38;100.00
69848;BME280;57143;55.940;37.496;2022-12-07T09:46:01;100190.75;;;-7.28;100.00
69848;BME280;57143;55.940;37.496;2022-12-07T09:48:32;100165.38;;;-7.43;100.00
69848;BME280;57143;55.940;37.496;2022-12-07T09:51:09;100160.75;;;-7.39;100.00
69848;BME280;57143;55.940;37.496;2022-12-07T09:53:41;100075.97;;;-7.86;100.00
69848;BME280;57143;55.940;37.496;2022-12-07T09:56:11;100198.84;;;-7.17;100.00
69848;BME280;57143;55.940;37.496;2022-12-07T09:58:40;100205.91;;;-7.17;100.00
69848;BME280;57143;55.940;37.496;2022-12-07T10:01:11;100186.03;;;-7.23;100.00
69848;BME280;57143;55.940;37.496;2022-12-07T10:03:43;100204.22;;;-7.32;100.00
69848;BME280;57143;55.940;37.496;2022-12-07T10:06:13;100193.84;;;-7.21;100.00
69848;BME280;57143;55.940;37.496;2022-12-07T10:08:40;100189.13;;;-7.16;100.00
69848;BME280;57143;55.940;37.496;2022-12-07T10:11:09;100204.31;;;-7.20;100.00
69848;BME280;57143;55.940;37.496;2022-12-07T10:13:39;100133.03;;;-7.59;100.00
69848;BME280;57143;55.940;37.496;2022-12-07T10:16:09;100181.16;;;-7.29;100.00
69848;BME280;57143;55.940;37.496;2022-12-07T10:18:53;100196.47;;;-7.21;100.00
69848;BME280;57143;55.940;37.496;2022-12-07T10:21:23;100187.00;;;-7.24;100.00
69848;BME280;57143;55.940;37.496;2022-12-07T10:24:01;100192.16;;;-7.22;100.00
69848;BME280;57143;55.940;37.496;2022-12-07T10:26:31;100189.44;;;-7.21;100.00
69848;BME280;57143;55.940;37.496;2022-12-07T10:29:00;100198.28;;;-7.22;100.00
69848;BME280;57143;55.940;37.496;2022-12-07T10:31:28;100212.22;;;-7.20;100.00
69848;BME280;57143;55.940;37.496;2022-12-07T10:33:57;100187.19;;;-7.27;100.00
69848;BME280;57143;55.940;37.496;2022-12-07T10:36:29;100179.56;;;-7.31;100.00
69848;BME280;57143;55.940;37.496;2022-12-07T10:39:02;100194.25;;;-7.13;100.00
69848;BME280;57143;55.940;37.496;2022-12-07T10:41:30;100163.56;;;-7.28;100.00
69848;BME280;57143;55.940;37.496;2022-12-07T10:43:58;100189.44;;;-7.21;100.00
69848;BME280;57143;55.940;37.496;2022-12-07T10:46:46;100185.69;;;-7.17;100.00
69848;BME280;57143;55.940;37.496;2022-12-07T10:52:30;100192.38;;;-7.11;100.00
69848;BME280;57143;55.940;37.496;2022-12-07T10:55:08;100182.19;;;-7.17;100.00
69848;BME280;57143;55.940;37.496;2022-12-07T10:57:53;100202.91;;;-7.11;100.00
69848;BME280;57143;55.940;37.496;2022-12-07T11:00:24;100190.09;;;-7.17;100.00
69848;BME280;57143;55.940;37.496;2022-12-07T11:06:10;100198.00;;;-7.17;100.00
69848;BME280;57143;55.940;37.496;2022-12-07T11:08:55;100195.06;;;-7.13;100.00
69848;BME280;57143;55.940;37.496;2022-12-07T11:11:32;100198.75;;;-7.15;100.00
69848;BME280;57143;55.940;37.496;2022-12-07T11:14:05;100066.88;;;-7.95;100.00
69848;BME280;57143;55.940;37.496;2022-12-07T11:16:50;100157.47;;;-7.43;100.00
69848;BME280;57143;55.940;37.496;2022-12-07T11:19:34;100184.63;;;-7.28;100.00
69848;BME280;57143;55.940;37.496;2022-12-07T11:22:12;100183.81;;;-7.29;100.00
69848;BME280;57143;55.940;37.496;2022-12-07T11:24:47;100144.78;;;-7.50;100.00
69848;BME280;57143;55.940;37.496;2022-12-07T11:27:23;100174.38;;;-7.33;100.00
69848;BME280;57143;55.940;37.496;2022-12-07T11:30:06;100181.44;;;-7.33;100.00
69848;BME280;57143;55.940;37.496;2022-12-07T11:32:45;100174.78;;;-7.39;100.00
69848;BME280;57143;55.940;37.496;2022-12-07T11:35:22;100165.47;;;-7.44;100.00
69848;BME280;57143;55.940;37.496;2022-12-07T11:37:56;100168.38;;;-7.35;100.00
69848;BME280;57143;55.940;37.496;2022-12-07T11:40:28;100168.28;;;-7.47;100.00
69848;BME280;57143;55.940;37.496;2022-12-07T11:43:04;100155.19;;;-7.49;100.00
69848;BME280;57143;55.940;37.496;2022-12-07T11:45:33;100167.16;;;-7.43;100.00
69848;BME280;57143;55.940;37.496;2022-12-07T11:48:02;100109.25;;;-7.71;100.00
69848;BME280;57143;55.940;37.496;2022-12-07T11:50:36;100147.97;;;-7.45;100.00
69848;BME280;57143;55.940;37.496;2022-12-07T11:53:09;100088.13;;;-7.84;100.00
69848;BME280;57143;55.940;37.496;2022-12-07T11:55:42;100125.13;;;-7.59;100.00
69848;BME280;57143;55.940;37.496;2022-12-07T11:58:23;100126.84;;;-7.58;100.00
69848;BME280;57143;55.940;37.496;2022-12-07T12:01:06;100133.03;;;-7.45;100.00
69848;BME280;57143;55.940;37.496;2022-12-07T12:03:37;100136.50;;;-7.44;100.00
69848;BME280;57143;55.940;37.496;2022-12-07T12:06:06;100134.16;;;-7.49;100.00
69848;BME280;57143;55.940;37.496;2022-12-07T12:08:36;100133.50;;;-7.52;100.00
69848;BME280;57143;55.940;37.496;2022-12-07T12:11:16;100098.44;;;-7.67;100.00
69848;BME280;57143;55.940;37.496;2022-12-07T12:14:17;100101.28;;;-7.70;100.00
69848;BME280;57143;55.940;37.496;2022-12-07T12:17:13;100104.72;;;-7.69;100.00
69848;BME280;57143;55.940;37.496;2022-12-07T12:19:58;100101.81;;;-7.79;100.00
69848;BME280;57143;55.940;37.496;2022-12-07T12:22:35;100113.28;;;-7.66;100.00
69848;BME280;57143;55.940;37.496;2022-12-07T12:25:06;100107.25;;;-7.68;100.00
69848;BME280;57143;55.940;37.496;2022-12-07T12:27:37;100089.03;;;-7.85;100.00
69848;BME280;57143;55.940;37.496;2022-12-07T12:30:23;100093.38;;;-7.84;100.00
69848;BME280;57143;55.940;37.496;2022-12-07T12:32:51;100100.69;;;-7.89;100.00
69848;BME280;57143;55.940;37.496;2022-12-07T12:35:29;100109.81;;;-7.80;100.00
69848;BME280;57143;55.940;37.496;2022-12-07T12:38:25;100103.81;;;-7.82;100.00
69848;BME280;57143;55.940;37.496;2022-12-07T12:40:53;100108.31;;;-7.84;100.00
69848;BME280;57143;55.940;37.496;2022-12-07T12:43:47;100083.78;;;-7.99;100.00
69848;BME280;57143;55.940;37.496;2022-12-07T12:46:49;100091.47;;;-7.96;100.00
69848;BME280;57143;55.940;37.496;2022-12-07T12:49:36;100092.69;;;-8.01;100.00
69848;BME280;57143;55.940;37.496;2022-12-07T12:55:13;100110.91;;;-7.98;100.00
69848;BME280;57143;55.940;37.496;2022-12-07T12:57:44;100098.50;;;-8.10;100.00
69848;BME280;57143;55.940;37.496;2022-12-07T13:00:19;100054.00;;;-8.27;100.00